Dapp, Canada
Current Conditions -  °F | °C
As of 9:00 AM on Sunday 21 Dec 2014 (Local Time) from CZVL Reporting Station
Overcast Overcast  
Wind Chill:   Ceiling: 8000
Heat Index: 16°   Visibility: 9mi
Dew Point: 14°   Wind: 8mph
Humidity: 93%   Direction: 290°WNW
Pressure: 29.31"   Gusts: NA
Location:  54.35°N, 113.92°W
Report Text: CZVL 211600Z AUTO 29007KT 9SM OVC080 M09/M10 A2931 RMK SLP967
Loading
Personal Weather Stations






























Interactive Weather Map New forecast layout! Learn more

10-Day Weather Forecast

Advertisements
Track Severe Weather on mobile